Disney Fantasy — C6ZL6 — position and weather

sailwx.info

Track history (hours):
 
Tides and Currents Weather Stations Pressure Air Temp Water Temp Dewpoint Dewpoint Depression Visibility Wind Speed Wind Dir Waves Ship Positions

Disney Fantasy

Last reported at 2017-Oct-16 22:56 UTC. Time now 2017-Oct-20 18:22 UTC.
Position N 20°40' W 086°48'.

Length 340 m; draft 8.6 m.

Type: Passenger vessel. MMSI: 311058700.

Date/timePositionNaut miles runAvg speedWind from/ knotsBaromVisibWave heightAir tempDewpointWater temp
2017-Oct-16 22:56N 20°40' W 086°48'818.8
2017-Oct-16 22:30N 20°36' W 086°56'611.4
2017-Oct-16 22:00N 20°31' W 086°58'0 0.0
2017-Oct-16 12:27N 20°31' W 086°57'2 4.3
2017-Oct-16 12:00N 20°33' W 086°57'611.8
2017-Oct-16 11:30N 20°38' W 086°54'50518.5
2017-Oct-15 08:13N 25°29' W 079°26'419.2
2017-Oct-15 08:00N 25°34' W 079°26'919.0
2017-Oct-15 07:30N 25°43' W 079°28'918.3
2017-Oct-15 07:00N 25°52' W 079°28'917.9
2017-Oct-15 06:30N 26°01' W 079°28'917.5
2017-Oct-15 06:00N 26°10' W 079°27'917.4
2017-Oct-15 05:30N 26°18' W 079°26'  
2017-Oct-09 22:51N 20°40' W 086°51'720.7
2017-Oct-09 22:30N 20°35' W 086°57'5 0.5
2017-Oct-09 12:41N 20°31' W 086°57'0 0.6
2017-Oct-09 12:30N 20°31' W 086°57'2 4.3
2017-Oct-09 12:01N 20°33' W 086°57'23017.7
2017-Oct-08 23:00N 22°54' W 083°42'28318.4 270 / 191013.010.8 29.0 29.0
2017-Oct-08 07:39N 25°32' W 079°25'319.2
2017-Oct-08 07:30N 25°35' W 079°25'1019.1
2017-Oct-08 07:00N 25°44' W 079°25'918.9
2017-Oct-08 06:30N 25°54' W 079°25'918.9
2017-Oct-08 06:00N 26°03' W 079°25'918.7
2017-Oct-08 05:30N 26°13' W 079°25'  
Track history (hours):
 
Tides and Currents Weather Stations Pressure Air Temp Water Temp Dewpoint Dewpoint Depression Visibility Wind Speed Wind Dir Waves Ship Positions

Disney Fantasy

Last reported at 2017-Oct-16 22:56 UTC. Time now 2017-Oct-20 18:22 UTC.
Position N 20°40' W 086°48'.

Length 340 m; draft 8.6 m.

Type: Passenger vessel. MMSI: 311058700.

Date/timePositionNaut miles runAvg speedWind from/ knotsBaromVisibWave heightAir tempDewpointWater temp
2017-Oct-16 22:56N 20°40' W 086°48'818.8
2017-Oct-16 22:30N 20°36' W 086°56'611.4
2017-Oct-16 22:00N 20°31' W 086°58'0 0.0
2017-Oct-16 12:27N 20°31' W 086°57'2 4.3
2017-Oct-16 12:00N 20°33' W 086°57'611.8
2017-Oct-16 11:30N 20°38' W 086°54'50518.5
2017-Oct-15 08:13N 25°29' W 079°26'419.2
2017-Oct-15 08:00N 25°34' W 079°26'919.0
2017-Oct-15 07:30N 25°43' W 079°28'918.3
2017-Oct-15 07:00N 25°52' W 079°28'917.9
2017-Oct-15 06:30N 26°01' W 079°28'917.5
2017-Oct-15 06:00N 26°10' W 079°27'917.4
2017-Oct-15 05:30N 26°18' W 079°26'  
2017-Oct-09 22:51N 20°40' W 086°51'720.7
2017-Oct-09 22:30N 20°35' W 086°57'5 0.5
2017-Oct-09 12:41N 20°31' W 086°57'0 0.6
2017-Oct-09 12:30N 20°31' W 086°57'2 4.3
2017-Oct-09 12:01N 20°33' W 086°57'23017.7
2017-Oct-08 23:00N 22°54' W 083°42'28318.4 270 / 191013.010.8 29.0 29.0
2017-Oct-08 07:39N 25°32' W 079°25'319.2
2017-Oct-08 07:30N 25°35' W 079°25'1019.1
2017-Oct-08 07:00N 25°44' W 079°25'918.9
2017-Oct-08 06:30N 25°54' W 079°25'918.9
2017-Oct-08 06:00N 26°03' W 079°25'918.7
2017-Oct-08 05:30N 26°13' W 079°25'  

Dump ship's entire track history